ESNZ

Östersund Airport

Östersund, Sweden
METAR ESNZ 162350Z AUTO 24009KT 9999 BKN033/// M07/M08 Q1005
Observed Flight Rules
Dec-16 @ 23:50 UTC (31 minutes ago) Visual Flight Rules
Wind Visibility Clouds
240° at 9 knots 10,000+ meters
  • Broken at 3,300' AGL
Temperatures Readings
Current -7°C / 19°F
Dewpoint -8°C / 18°F
Humidity 93%
Altimeter 29.68" Hg
Pressure 1005 hPa
Elevation 370
METAR ESNZ 162350Z AUTO 24009KT 9999 BKN033/// M07/M08 Q1005
Observed Flight Rules
Dec-16 @ 23:50 UTC
(31 minutes ago)
VFR
Wind Visibility
240° at 9 knots 10,000+ meters
Clouds
  • Broken at 3,300' AGL
Temperature Dewpoint
-7°C / 19°F -8°C / 18°F
Humidity Altimeter Pressure
93% 29.68" Hg 1005 hPa